Time;durP1;ratioP1;P1;durP2;ratioP2;P2;SDS_P1;SDS_P2;PMS_P1;PMS_P2;Temp;Humidity;BMP_temperature;BMP_pressure;BME280_temperature;BME280_humidity;BME280_pressure;Samples;Min_cycle;Max_cycle;Signal;HPM_P1;HPM_P2
2021/04/20 00:02:15;;;;;;;14.90;8.60;;;;;;;11.33;50.84;100779.09;5073851;28;20390;-92
2021/04/20 00:04:40;;;;;;;14.80;8.30;;;;;;;11.26;50.88;100775.22;5071393;28;20062;-91
2021/04/20 00:07:06;;;;;;;13.13;8.50;;;;;;;11.28;50.82;100778.59;5072989;28;20438;-91
2021/04/20 00:09:32;;;;;;;12.18;7.75;;;;;;;11.26;50.65;100772.56;5071857;28;20024;-92
2021/04/20 00:11:57;;;;;;;13.05;8.70;;;;;;;11.19;50.57;100779.16;5072521;28;20036;-92
2021/04/20 00:14:22;;;;;;;11.95;8.43;;;;;;;11.05;51.05;100772.16;5072725;28;20032;-91
2021/04/20 00:16:48;;;;;;;12.27;8.00;;;;;;;11.03;50.96;100780.16;5072905;28;20116;-91
2021/04/20 00:19:13;;;;;;;14.30;8.15;;;;;;;10.94;51.37;100780.75;5073524;28;20025;-91
2021/04/20 00:21:39;;;;;;;12.30;8.32;;;;;;;10.81;50.89;100778.03;5072546;28;20024;-91
2021/04/20 00:24:05;;;;;;;20.02;8.77;;;;;;;10.87;51.02;100779.44;5072399;28;20033;-92
2021/04/20 00:26:30;;;;;;;14.20;9.23;;;;;;;10.61;51.21;100768.78;5072522;28;20055;-92
2021/04/20 00:28:55;;;;;;;18.52;7.88;;;;;;;10.37;50.29;100772.91;5072851;28;20021;-91
2021/04/20 00:31:21;;;;;;;12.63;7.65;;;;;;;9.96;50.95;100763.97;5073060;28;20039;-92
2021/04/20 00:33:46;;;;;;;17.38;8.60;;;;;;;9.52;52.64;100775.28;5073489;28;20031;-91
2021/04/20 00:36:12;;;;;;;12.18;7.80;;;;;;;9.77;51.97;100769.44;5073933;28;20028;-91
2021/04/20 00:38:38;;;;;;;15.88;8.82;;;;;;;10.15;51.26;100768.09;5073460;28;20479;-92
2021/04/20 00:41:09;;;;;;;14.18;8.38;;;;;;;10.38;51.25;100766.75;5071923;28;20463;-92
2021/04/20 00:43:54;;;;;;;13.25;8.32;;;;;;;10.54;51.24;100772.72;5074165;28;20379;-92
2021/04/20 00:46:24;;;;;;;11.88;7.60;;;;;;;10.48;50.99;100775.72;5076379;28;20033;-92
2021/04/20 00:48:50;;;;;;;14.18;7.88;;;;;;;10.39;51.68;100766.66;5097386;28;20016;-92
2021/04/20 00:51:17;;;;;;;11.77;7.97;;;;;;;10.41;51.97;100769.19;5084613;28;20025;-92
2021/04/20 00:53:43;;;;;;;17.05;8.02;;;;;;;10.19;50.93;100764.34;5069841;28;20056;-92
2021/04/20 00:56:09;;;;;;;15.02;8.27;;;;;;;10.07;51.70;100755.44;5052106;28;20025;-91
2021/04/20 00:58:35;;;;;;;14.00;8.40;;;;;;;10.08;51.01;100765.84;5052039;28;20491;-92
2021/04/20 01:01:01;;;;;;;12.38;8.18;;;;;;;9.62;51.87;100765.13;5060150;28;20343;-92
2021/04/20 01:03:27;;;;;;;16.80;8.38;;;;;;;9.49;53.14;100764.97;5070271;28;20033;-92
2021/04/20 01:05:53;;;;;;;15.80;8.45;;;;;;;9.46;53.34;100754.69;5072120;28;20025;-91
2021/04/20 01:08:21;;;;;;;15.68;8.18;;;;;;;9.41;52.61;100751.47;5072152;28;20122;-92
2021/04/20 01:10:50;;;;;;;15.48;8.40;;;;;;;9.82;52.54;100758.69;5071879;28;20023;-91
2021/04/20 01:13:17;;;;;;;13.25;8.00;;;;;;;10.01;52.46;100771.53;5072142;28;20158;-91
2021/04/20 01:15:47;;;;;;;14.05;7.93;;;;;;;10.10;52.00;100765.75;5071751;28;20046;-92
2021/04/20 01:18:18;;;;;;;11.52;6.57;;;;;;;10.06;52.02;100767.72;5071788;28;20021;-91
2021/04/20 01:20:47;;;;;;;15.38;8.25;;;;;;;9.84;51.95;100756.84;5072041;28;20099;-92
2021/04/20 01:23:18;;;;;;;16.45;9.15;;;;;;;9.44;53.13;100765.25;5072118;28;20032;-91
2021/04/20 01:25:44;;;;;;;14.63;8.63;;;;;;;9.01;54.11;100764.22;5071939;28;20024;-92
2021/04/20 01:28:09;;;;;;;14.43;7.68;;;;;;;9.53;52.91;100762.06;5071887;28;20035;-91
2021/04/20 01:30:35;;;;;;;12.73;7.05;;;;;;;9.76;51.94;100765.16;5071083;28;20028;-93
2021/04/20 01:33:05;;;;;;;15.55;8.10;;;;;;;9.59;52.42;100753.00;5071587;28;20356;-91
2021/04/20 01:35:33;;;;;;;16.02;8.48;;;;;;;9.89;51.38;100766.13;5072058;28;20034;-92
2021/04/20 01:38:04;;;;;;;12.57;6.80;;;;;;;10.01;50.80;100751.44;5072109;28;20016;-90
2021/04/20 01:40:30;;;;;;;15.02;8.32;;;;;;;10.03;50.38;100756.56;5072243;28;20505;-90
2021/04/20 01:42:56;;;;;;;14.20;7.45;;;;;;;10.02;50.43;100753.09;5071752;28;20024;-91
2021/04/20 01:45:22;;;;;;;15.65;7.65;;;;;;;9.97;50.65;100754.31;5071914;28;20360;-91
2021/04/20 01:47:48;;;;;;;12.88;6.32;;;;;;;9.97;50.54;100755.16;5071414;28;20032;-92
2021/04/20 01:50:14;;;;;;;14.18;7.07;;;;;;;9.95;50.23;100754.38;5071837;28;20016;-91
2021/04/20 01:52:42;;;;;;;13.85;7.60;;;;;;;10.02;50.24;100757.50;5069869;28;20036;-92
2021/04/20 01:55:08;;;;;;;13.60;7.35;;;;;;;10.03;50.86;100749.56;5071434;28;20023;-91
2021/04/20 01:57:35;;;;;;;13.52;7.95;;;;;;;10.12;50.24;100750.75;5070130;28;20356;-92
2021/04/20 02:00:01;;;;;;;14.52;8.20;;;;;;;9.69;50.76;100751.53;5071434;28;20096;-91
2021/04/20 02:02:27;;;;;;;14.35;8.50;;;;;;;9.90;51.16;100744.19;5073916;28;20060;-91
2021/04/20 02:04:54;;;;;;;16.38;8.02;;;;;;;9.76;50.60;100736.31;5075505;28;20086;-91
2021/04/20 02:07:19;;;;;;;13.00;7.45;;;;;;;9.94;49.76;100739.59;5075191;28;20039;-91
2021/04/20 02:09:45;;;;;;;14.35;7.95;;;;;;;9.90;49.91;100736.31;5074807;28;20032;-91
2021/04/20 02:12:11;;;;;;;13.07;7.50;;;;;;;9.83;50.23;100740.22;5074879;28;20048;-91
2021/04/20 02:14:37;;;;;;;13.13;8.63;;;;;;;9.50;51.18;100740.47;5075032;28;20028;-91
2021/04/20 02:17:03;;;;;;;12.88;7.10;;;;;;;9.32;50.78;100724.00;5075091;28;20055;-91
2021/04/20 02:19:29;;;;;;;18.27;9.43;;;;;;;9.08;51.98;100737.59;5074860;28;20451;-91
2021/04/20 02:21:55;;;;;;;17.88;7.93;;;;;;;9.15;51.62;100740.69;5073496;28;20021;-91
2021/04/20 02:24:20;;;;;;;18.83;8.18;;;;;;;9.27;50.91;100736.53;5074829;28;20103;-92
2021/04/20 02:26:46;;;;;;;13.70;7.57;;;;;;;9.28;51.28;100727.72;5074855;28;20025;-92
2021/04/20 02:29:12;;;;;;;14.02;7.47;;;;;;;9.56;50.35;100723.50;5074924;28;20070;-92
2021/04/20 02:31:40;;;;;;;12.45;6.97;;;;;;;9.65;50.38;100728.22;5075095;28;20032;-92
2021/04/20 02:34:07;;;;;;;12.48;7.20;;;;;;;9.62;50.65;100734.50;5074779;28;20064;-91
2021/04/20 02:36:41;;;;;;;12.70;7.68;;;;;;;9.73;50.71;100724.22;5075349;28;20393;-91
2021/04/20 02:39:07;;;;;;;15.00;7.90;;;;;;;9.68;51.37;100728.06;5075908;28;20351;-91
2021/04/20 02:41:33;;;;;;;15.70;7.15;;;;;;;9.62;51.70;100734.50;5074251;28;20031;-91
2021/04/20 02:44:06;;;;;;;14.13;7.05;;;;;;;9.61;52.10;100729.34;5075505;28;20099;-91
2021/04/20 02:46:31;;;;;;;13.98;7.25;;;;;;;9.53;52.15;100733.22;5073425;28;20033;-92
2021/04/20 02:48:57;;;;;;;11.68;7.20;;;;;;;9.48;52.06;100726.59;5074726;28;20024;-92
2021/04/20 02:51:23;;;;;;;12.77;7.10;;;;;;;9.41;52.01;100723.47;5072704;28;20033;-91
2021/04/20 02:53:50;;;;;;;12.15;6.82;;;;;;;9.48;52.13;100731.84;5073040;28;20403;-91
2021/04/20 02:56:17;;;;;;;16.45;7.85;;;;;;;9.40;51.43;100726.19;5074388;28;20048;-91
2021/04/20 02:58:44;;;;;;;14.60;7.30;;;;;;;9.42;51.26;100722.56;5072935;28;20063;-91
2021/04/20 03:01:17;;;;;;;14.23;7.75;;;;;;;9.56;51.57;100723.50;5074154;28;20025;-91
2021/04/20 03:03:47;;;;;;;10.93;6.50;;;;;;;9.55;50.84;100727.91;5072906;28;20082;-91
2021/04/20 03:06:13;;;;;;;12.80;7.15;;;;;;;9.48;50.90;100727.44;5073678;28;20054;-91
2021/04/20 03:08:41;;;;;;;14.55;7.70;;;;;;;9.49;51.59;100723.88;5074184;28;20024;-91
2021/04/20 03:11:14;;;;;;;15.23;7.50;;;;;;;9.34;51.31;100719.53;5073948;28;20031;-91
2021/04/20 03:13:40;;;;;;;16.75;8.00;;;;;;;9.31;50.79;100719.69;5073619;28;20032;-91
2021/04/20 03:16:07;;;;;;;11.70;6.65;;;;;;;9.46;50.84;100718.81;5074740;28;20490;-91
2021/04/20 03:18:33;;;;;;;13.85;6.93;;;;;;;9.45;50.24;100711.88;5098555;28;20019;-91
2021/04/20 03:21:01;;;;;;;14.85;6.88;;;;;;;9.48;51.11;100716.94;5089402;28;20040;-90
2021/04/20 03:23:30;;;;;;;11.95;6.60;;;;;;;9.53;50.84;100714.88;5076519;28;20044;-91
2021/04/20 03:25:55;;;;;;;11.23;6.93;;;;;;;9.49;51.02;100717.78;5073750;28;20082;-91
2021/04/20 03:28:21;;;;;;;13.48;6.72;;;;;;;9.28;51.58;100710.25;5072470;28;20479;-90
2021/04/20 03:30:46;;;;;;;15.00;7.57;;;;;;;8.55;53.66;100712.59;5072636;28;20047;-91
2021/04/20 03:33:31;;;;;;;13.35;7.63;;;;;;;8.66;53.15;100712.84;5073289;28;20036;-91
2021/04/20 03:36:14;;;;;;;11.27;6.85;;;;;;;8.53;54.00;100712.69;5053518;28;20078;-91
2021/04/20 03:38:49;;;;;;;13.75;7.60;;;;;;;8.48;54.60;100721.72;5053445;28;20028;-91
2021/04/20 03:41:22;;;;;;;14.10;7.40;;;;;;;8.41;55.16;100709.84;5051966;28;20029;-92
2021/04/20 03:43:51;;;;;;;13.95;7.32;;;;;;;8.36;55.70;100712.72;5052061;28;20450;-91
2021/04/20 03:46:20;;;;;;;15.85;7.78;;;;;;;8.99;54.18;100724.16;5053250;28;20028;-91
2021/04/20 03:49:01;;;;;;;13.23;7.28;;;;;;;9.24;52.75;100707.88;5057233;28;20123;-91
2021/04/20 03:51:29;;;;;;;12.75;7.13;;;;;;;9.09;53.11;100713.06;5072728;28;20029;-91
2021/04/20 03:54:03;;;;;;;11.30;6.38;;;;;;;9.16;52.96;100716.16;5073163;28;20055;-91
2021/04/20 03:56:30;;;;;;;11.82;6.97;;;;;;;9.11;53.07;100713.81;5073152;28;20016;-91
2021/04/20 03:58:59;;;;;;;10.57;6.75;;;;;;;9.07;53.38;100721.94;5072934;28;20090;-90
2021/04/20 04:01:25;;;;;;;11.05;7.00;;;;;;;8.98;53.48;100722.47;5073023;28;20072;-90
2021/04/20 04:03:52;;;;;;;11.15;6.55;;;;;;;9.01;53.48;100730.16;5073204;28;20039;-90
2021/04/20 04:06:19;;;;;;;12.05;6.78;;;;;;;9.00;53.29;100734.53;5072563;28;20024;-90
2021/04/20 04:08:48;;;;;;;12.02;6.65;;;;;;;8.90;53.96;100720.28;5071771;28;20021;-91
2021/04/20 04:11:14;;;;;;;16.80;9.27;;;;;;;8.54;54.42;100729.22;5071671;28;20031;-90
2021/04/20 04:13:42;;;;;;;11.98;7.07;;;;;;;8.60;53.46;100728.88;5072745;28;20059;-90
2021/04/20 04:16:10;;;;;;;12.57;7.45;;;;;;;8.60;53.67;100723.66;5071366;28;20020;-90
2021/04/20 04:18:37;;;;;;;13.10;7.28;;;;;;;8.70;53.37;100713.53;5072750;28;20017;-91
2021/04/20 04:21:06;;;;;;;16.95;7.53;;;;;;;8.56;53.24;100711.66;5072245;28;20047;-90
2021/04/20 04:23:42;;;;;;;14.25;7.15;;;;;;;8.77;53.02;100714.88;5071941;28;20107;-90
2021/04/20 04:26:11;;;;;;;14.45;7.05;;;;;;;8.65;53.64;100716.41;5072197;28;20505;-91
2021/04/20 04:28:39;;;;;;;15.93;8.43;;;;;;;8.77;53.31;100707.03;5072382;28;20095;-90
2021/04/20 04:31:09;;;;;;;13.98;7.25;;;;;;;9.04;52.98;100711.63;5072955;28;20033;-90
2021/04/20 04:33:38;;;;;;;12.07;6.65;;;;;;;8.95;53.12;100712.19;5071982;28;20031;-90
2021/04/20 04:36:04;;;;;;;13.73;6.47;;;;;;;8.85;53.60;100704.00;5068790;28;20421;-89
2021/04/20 04:38:31;;;;;;;15.27;7.18;;;;;;;8.87;53.63;100710.81;5072418;28;20028;-91
2021/04/20 04:40:58;;;;;;;14.25;6.97;;;;;;;8.88;53.52;100722.97;5072058;28;20016;-90
2021/04/20 04:43:24;;;;;;;12.32;6.93;;;;;;;8.92;53.99;100715.78;5071996;28;20035;-90
2021/04/20 04:45:50;;;;;;;13.05;6.60;;;;;;;8.92;53.67;100710.56;5071998;28;20029;-90
2021/04/20 04:48:16;;;;;;;11.70;7.05;;;;;;;8.95;53.56;100723.50;5072117;28;20032;-91
2021/04/20 04:50:42;;;;;;;11.70;6.72;;;;;;;8.88;53.81;100719.50;5070939;28;20142;-91
2021/04/20 04:53:11;;;;;;;15.02;8.10;;;;;;;8.89;53.25;100723.84;5071962;28;20539;-90
2021/04/20 04:55:36;;;;;;;10.45;6.07;;;;;;;8.96;53.07;100725.16;5063763;28;20078;-89
2021/04/20 04:58:03;;;;;;;12.05;7.22;;;;;;;8.97;53.52;100721.63;5071722;28;20455;-89
2021/04/20 05:00:30;;;;;;;12.88;7.50;;;;;;;9.03;52.64;100723.91;5069776;28;20047;-90
2021/04/20 05:02:58;;;;;;;9.93;6.35;;;;;;;8.83;53.24;100718.94;5062973;28;20025;-90
2021/04/20 05:05:25;;;;;;;11.60;6.65;;;;;;;8.58;53.74;100725.50;5054220;28;20403;-89
2021/04/20 05:07:56;;;;;;;15.75;7.47;;;;;;;8.54;53.96;100724.00;5057241;28;20025;-90
2021/04/20 05:10:22;;;;;;;12.45;6.50;;;;;;;8.57;54.61;100718.59;5070588;28;20017;-90
2021/04/20 05:12:48;;;;;;;13.00;6.75;;;;;;;8.72;53.57;100716.91;5071331;28;20029;-90
2021/04/20 05:15:15;;;;;;;14.00;6.38;;;;;;;8.77;53.16;100720.13;5062252;28;20029;-90
2021/04/20 05:17:42;;;;;;;12.90;7.00;;;;;;;8.79;53.61;100726.13;5056846;28;20065;-90
2021/04/20 05:20:10;;;;;;;12.80;6.90;;;;;;;8.75;53.77;100727.22;5062409;28;20029;-91
2021/04/20 05:22:36;;;;;;;14.93;6.95;;;;;;;8.81;53.65;100731.28;5061786;28;20107;-90
2021/04/20 05:25:10;;;;;;;11.38;6.97;;;;;;;8.86;53.98;100724.81;5070658;28;20436;-90
2021/04/20 05:27:36;;;;;;;14.30;7.50;;;;;;;8.87;53.87;100730.94;5070674;28;20025;-90
2021/04/20 05:30:03;;;;;;;15.40;7.22;;;;;;;8.89;53.65;100729.91;5071542;28;20109;-90
2021/04/20 05:32:28;;;;;;;11.95;6.78;;;;;;;8.93;54.41;100728.81;5082626;23;20048;-84
2021/04/20 05:34:53;;;;;;;12.65;7.07;;;;;;;8.93;54.00;100730.59;5070201;28;20361;-84
2021/04/20 05:37:37;;;;;;;14.85;8.13;;;;;;;8.92;54.31;100727.09;5075757;28;20017;-85
2021/04/20 05:40:06;;;;;;;14.98;8.13;;;;;;;8.92;54.39;100734.97;5072035;28;20017;-85
2021/04/20 05:42:32;;;;;;;17.50;7.60;;;;;;;9.04;54.24;100730.81;5075315;28;20056;-85
2021/04/20 05:44:58;;;;;;;17.30;7.72;;;;;;;8.71;54.99;100734.41;5069193;28;20082;-84
2021/04/20 05:47:24;;;;;;;13.60;7.53;;;;;;;8.71;55.44;100734.41;5064778;28;20029;-85
2021/04/20 05:49:54;;;;;;;21.52;8.57;;;;;;;8.77;56.15;100729.72;5062636;28;20027;-83
2021/04/20 05:52:20;;;;;;;15.85;7.63;;;;;;;8.84;55.75;100739.78;5063891;28;20032;-83
2021/04/20 05:54:45;;;;;;;14.48;7.70;;;;;;;9.04;55.12;100738.66;5070132;28;20037;-82
2021/04/20 05:57:11;;;;;;;13.32;7.35;;;;;;;9.22;55.23;100738.56;5073890;28;20036;-83
2021/04/20 05:59:36;;;;;;;15.20;7.65;;;;;;;9.30;55.10;100737.22;5075415;28;20048;-83
2021/04/20 06:02:02;;;;;;;12.93;7.55;;;;;;;9.43;54.75;100742.56;5072890;28;20020;-83
2021/04/20 06:04:28;;;;;;;13.02;7.03;;;;;;;9.50;54.39;100740.47;5065915;28;20041;-82
2021/04/20 06:06:54;;;;;;;13.52;6.75;;;;;;;9.58;54.47;100747.84;5061877;28;20051;-84
2021/04/20 06:09:19;;;;;;;10.98;6.90;;;;;;;9.65;55.02;100751.81;5073223;28;20029;-85
2021/04/20 06:11:45;;;;;;;13.85;7.72;;;;;;;9.67;54.75;100742.06;5074151;28;20343;-86
2021/04/20 06:14:11;;;;;;;16.00;7.85;;;;;;;9.79;55.00;100749.22;5067353;28;20123;-86
2021/04/20 06:16:37;;;;;;;14.48;7.35;;;;;;;9.87;54.54;100744.38;5074221;28;20095;-85
2021/04/20 06:19:03;;;;;;;10.07;6.72;;;;;;;9.92;54.50;100742.31;5073434;28;20170;-86
2021/04/20 06:21:29;;;;;;;11.05;6.38;;;;;;;10.02;54.46;100747.84;5073428;28;20467;-85
2021/04/20 06:23:55;;;;;;;16.33;7.75;;;;;;;10.07;54.90;100747.56;5072077;28;20387;-85
2021/04/20 06:26:21;;;;;;;14.23;7.30;;;;;;;10.17;54.26;100750.47;5072100;28;20064;-85
2021/04/20 06:28:47;;;;;;;20.95;7.57;;;;;;;10.30;53.81;100747.03;5072265;28;20032;-85
2021/04/20 06:31:14;;;;;;;12.00;6.90;;;;;;;10.43;54.15;100751.56;5066159;28;20036;-85
2021/04/20 06:33:41;;;;;;;13.40;7.95;;;;;;;10.37;53.79;100746.66;5072030;28;20071;-85
2021/04/20 06:36:10;;;;;;;12.13;7.35;;;;;;;10.60;53.61;100756.59;5074512;28;20021;-85
2021/04/20 06:38:37;;;;;;;15.05;7.90;;;;;;;10.74;52.95;100747.00;5072146;28;20033;-85
2021/04/20 06:41:06;;;;;;;16.52;9.23;;;;;;;12.08;50.25;100750.47;5072940;28;20026;-85
2021/04/20 06:43:54;;;;;;;18.58;8.15;;;;;;;12.56;49.36;100747.13;5071093;28;20532;-84
2021/04/20 06:46:28;;;;;;;15.35;7.80;;;;;;;13.42;47.41;100742.72;5070739;28;20143;-85
2021/04/20 06:49:31;;;;;;;9.90;6.68;;;;;;;14.97;43.25;100746.53;5064795;28;20043;-85
2021/04/20 06:52:02;;;;;;;10.50;6.82;;;;;;;15.89;41.08;100740.72;5042387;28;20514;-85
2021/04/20 06:54:35;;;;;;;13.68;7.13;;;;;;;16.83;40.03;100735.28;5069654;28;20036;-85
2021/04/20 06:57:13;;;;;;;13.32;6.88;;;;;;;17.97;38.75;100743.47;5054637;28;20471;-85
2021/04/20 06:59:55;;;;;;;13.57;7.53;;;;;;;18.82;36.72;100745.13;5058977;28;20032;-85
2021/04/20 07:02:42;;;;;;;11.13;6.25;;;;;;;19.76;32.88;100753.63;5070824;28;20142;-85
2021/04/20 07:05:10;;;;;;;11.73;7.32;;;;;;;19.97;32.14;100731.97;5062913;28;20111;-85
2021/04/20 07:08:00;;;;;;;14.88;8.63;;;;;;;20.60;30.80;100742.28;5059011;28;20028;-85
2021/04/20 07:10:34;;;;;;;12.05;7.05;;;;;;;20.95;30.74;100742.19;5073238;28;20028;-85
2021/04/20 07:13:03;;;;;;;12.27;7.40;;;;;;;21.18;29.90;100739.75;5053579;28;20061;-86
2021/04/20 07:15:29;;;;;;;14.20;8.63;;;;;;;21.35;28.95;100743.28;5068088;28;20387;-84
2021/04/20 07:18:19;;;;;;;18.20;8.02;;;;;;;21.97;28.94;100745.41;5067641;28;20024;-84
2021/04/20 07:21:11;;;;;;;17.33;8.13;;;;;;;22.35;28.33;100746.50;5069609;28;20103;-85
2021/04/20 07:23:55;;;;;;;;;;;;;;;22.49;27.48;100742.28;5068270;28;20042;-85
2021/04/20 07:26:37;;;;;;;15.23;8.57;;;;;;;22.72;26.85;100738.81;5076074;28;19924;-85
2021/04/20 07:29:25;;;;;;;17.60;10.48;;;;;;;23.09;26.48;100742.63;5075265;28;20103;-86
2021/04/20 07:32:11;;;;;;;17.35;8.85;;;;;;;23.52;25.82;100742.97;5056742;28;20055;-86
2021/04/20 07:34:42;;;;;;;12.88;6.30;;;;;;;24.01;25.19;100741.69;5059461;28;20090;-85
2021/04/20 07:37:21;;;;;;;17.33;8.67;;;;;;;23.76;25.10;100749.94;5058048;28;20512;-85
2021/04/20 07:39:57;;;;;;;16.60;8.82;;;;;;;23.94;25.11;100744.28;5064006;28;20276;-85
2021/04/20 07:42:32;;;;;;;14.80;9.10;;;;;;;23.82;25.96;100743.06;5072070;28;20035;-85
2021/04/20 07:45:04;;;;;;;12.05;8.38;;;;;;;23.99;25.14;100749.91;5059487;28;20024;-85
2021/04/20 07:47:40;;;;;;;15.90;8.93;;;;;;;24.32;25.66;100744.16;5062369;28;20025;-85
2021/04/20 07:50:11;;;;;;;14.60;8.35;;;;;;;24.68;24.67;100738.84;5069875;28;20040;-85
2021/04/20 07:53:00;;;;;;;15.05;9.60;;;;;;;24.74;24.99;100735.44;5071731;28;20112;-85
2021/04/20 07:55:47;;;;;;;19.38;9.15;;;;;;;24.85;23.96;100744.03;5071980;28;20051;-85
2021/04/20 07:58:19;;;;;;;16.08;9.45;;;;;;;25.21;23.96;100748.53;5071124;28;20020;-85
2021/04/20 08:01:12;;;;;;;13.75;8.45;;;;;;;25.63;23.37;100742.31;5070238;28;20385;-85
2021/04/20 08:04:10;;;;;;;16.23;8.77;;;;;;;26.33;23.10;100741.53;5073021;28;20024;-85
2021/04/20 08:06:39;;;;;;;11.43;7.57;;;;;;;26.65;22.50;100745.41;5072955;28;20021;-85
2021/04/20 08:09:19;;;;;;;15.15;8.40;;;;;;;26.86;22.27;100742.59;5064738;28;20025;-85
2021/04/20 08:11:53;;;;;;;18.85;9.88;;;;;;;26.75;22.19;100740.47;5053146;28;20037;-85
2021/04/20 08:14:27;;;;;;;17.73;9.25;;;;;;;27.24;21.33;100743.91;5052411;28;20033;-85
2021/04/20 08:16:59;;;;;;;15.70;9.02;;;;;;;27.22;21.94;100746.78;5060157;28;20036;-85
2021/04/20 08:19:30;;;;;;;13.68;8.70;;;;;;;27.65;21.78;100749.13;5061534;28;20021;-86
2021/04/20 08:21:57;;;;;;;12.63;8.25;;;;;;;28.13;20.73;100745.31;5067335;28;20494;-86
2021/04/20 08:24:31;;;;;;;14.30;8.13;;;;;;;28.30;19.92;100743.00;5062716;28;20170;-86
2021/04/20 08:27:04;;;;;;;13.93;7.47;;;;;;;28.58;19.94;100744.56;5072032;28;20533;-85
2021/04/20 08:29:32;;;;;;;14.20;7.57;;;;;;;28.37;19.41;100743.78;5070629;28;20028;-86
2021/04/20 08:32:17;;;;;;;12.60;7.78;;;;;;;28.84;19.30;100739.03;5069523;28;20048;-86
2021/04/20 08:35:00;;;;;;;11.57;6.93;;;;;;;29.22;19.17;100734.66;5069010;28;20039;-86
2021/04/20 08:37:34;;;;;;;15.20;7.97;;;;;;;28.41;19.24;100736.91;5050900;28;20545;-86
2021/04/20 08:40:23;;;;;;;13.20;7.60;;;;;;;28.70;19.92;100742.84;5068064;28;20021;-85
2021/04/20 08:43:01;;;;;;;12.38;7.13;;;;;;;29.27;17.88;100735.66;5071525;28;20036;-86
2021/04/20 08:45:48;;;;;;;13.82;7.22;;;;;;;28.95;18.40;100740.22;5085919;28;20418;-86
2021/04/20 08:48:23;;;;;;;14.48;7.93;;;;;;;29.03;19.40;100736.44;5063124;28;20599;-86
2021/04/20 08:50:56;;;;;;;16.17;8.13;;;;;;;27.49;21.60;100747.66;5065375;28;20021;-86
2021/04/20 08:53:52;;;;;;;16.27;8.18;;;;;;;29.41;18.86;100738.25;5065733;28;20039;-86
2021/04/20 08:56:32;;;;;;;18.33;8.43;;;;;;;28.56;20.01;100736.69;5056979;28;20033;-86
2021/04/20 08:59:51;;;;;;;12.88;6.45;;;;;;;30.82;17.05;100722.13;5051193;28;20036;-86
2021/04/20 09:02:22;;;;;;;15.63;8.38;;;;;;;29.85;17.76;100734.53;4992177;28;20030;-86
2021/04/20 09:05:24;;;;;;;13.07;6.60;;;;;;;30.22;17.34;100739.13;4990035;28;20413;-86
2021/04/20 09:07:55;;;;;;;13.63;7.65;;;;;;;30.11;16.97;100732.59;5054544;28;20487;-86
2021/04/20 09:10:27;;;;;;;;;;;;;;;31.37;16.45;100730.06;5069342;28;20115;-86
2021/04/20 09:13:01;;;;;;;11.32;6.82;;;;;;;31.31;15.69;100727.47;5069359;28;19912;-86
2021/04/20 09:15:31;;;;;;;13.05;6.93;;;;;;;31.47;15.99;100737.66;5069219;28;20020;-87
2021/04/20 09:18:04;;;;;;;13.80;6.97;;;;;;;30.40;17.41;100731.03;5051519;28;20120;-87
2021/04/20 09:20:47;;;;;;;14.02;6.47;;;;;;;31.45;16.69;100733.50;5051616;28;20032;-86
2021/04/20 09:23:25;;;;;;;13.43;7.25;;;;;;;31.73;16.37;100728.19;5051032;28;20422;-87
2021/04/20 09:26:04;;;;;;;12.80;5.70;;;;;;;32.03;14.62;100732.69;5070581;28;20064;-87
2021/04/20 09:28:39;;;;;;;7.43;4.68;;;;;;;33.42;12.67;100722.53;5070860;28;20509;-87
2021/04/20 09:31:17;;;;;;;9.77;4.97;;;;;;;32.70;13.81;100726.75;5056574;28;20029;-87
2021/04/20 09:33:49;;;;;;;13.23;6.22;;;;;;;32.64;13.84;100726.88;5051651;28;20054;-87
2021/04/20 09:36:15;;;;;;;10.73;5.80;;;;;;;31.31;14.77;100730.19;5051433;28;20116;-87
2021/04/20 09:38:45;;;;;;;11.65;6.07;;;;;;;32.73;13.48;100726.25;5054930;28;20089;-87
2021/04/20 09:41:13;;;;;;;10.38;5.65;;;;;;;32.74;13.78;100727.06;5058487;28;20100;-87
2021/04/20 09:43:55;;;;;;;14.68;7.20;;;;;;;32.03;14.98;100732.69;5051406;28;20037;-87
2021/04/20 09:46:32;;;;;;;10.95;6.60;;;;;;;31.57;15.41;100742.50;5056048;28;20060;-87
2021/04/20 09:49:03;;;;;;;8.07;5.90;;;;;;;31.61;15.06;100730.09;5067167;28;20024;-86
2021/04/20 09:51:35;;;;;;;13.65;5.53;;;;;;;31.93;15.25;100729.72;5067717;28;20024;-86
2021/04/20 09:54:19;;;;;;;11.23;5.97;;;;;;;31.06;17.23;100733.06;5070756;28;20062;-87
2021/04/20 09:56:54;;;;;;;15.00;6.03;;;;;;;31.75;15.55;100725.25;5051206;28;20559;-87
2021/04/20 09:59:34;;;;;;;13.35;6.32;;;;;;;31.61;15.82;100730.91;5051453;28;20060;-87
2021/04/20 10:02:03;;;;;;;11.55;7.60;;;;;;;33.02;14.17;100731.66;5051765;28;20017;-87
2021/04/20 10:04:41;;;;;;;11.20;6.95;;;;;;;32.80;15.04;100721.47;5059546;28;20041;-87
2021/04/20 10:07:22;;;;;;;11.85;6.07;;;;;;;32.85;15.09;100728.09;5071027;28;20028;-86
2021/04/20 10:10:34;;;;;;;14.32;7.38;;;;;;;32.82;14.82;100723.13;5067542;28;20108;-86
2021/04/20 10:13:41;;;;;;;12.38;6.72;;;;;;;32.73;14.84;100726.25;5041824;28;20048;-86
2021/04/20 10:16:15;;;;;;;14.63;8.45;;;;;;;32.05;16.02;100727.03;5051678;28;20025;-86
2021/04/20 10:18:56;;;;;;;12.15;8.13;;;;;;;31.83;17.16;100727.59;5060538;28;20029;-86
2021/04/20 10:21:29;;;;;;;16.33;10.00;;;;;;;31.27;17.19;100718.13;5061691;28;20021;-87
2021/04/20 10:24:13;;;;;;;12.20;7.43;;;;;;;31.58;16.43;100717.84;5055027;28;20430;-86
2021/04/20 10:26:55;;;;;;;15.05;8.50;;;;;;;31.06;17.19;100720.31;5054351;28;20482;-86
2021/04/20 10:29:31;;;;;;;13.45;7.60;;;;;;;32.10;16.42;100719.81;5054657;28;20048;-85
2021/04/20 10:32:02;;;;;;;12.15;7.20;;;;;;;32.10;16.19;100717.09;5054543;28;20055;-86
2021/04/20 10:34:28;;;;;;;13.40;5.95;;;;;;;31.85;16.33;100711.91;5059901;28;20072;-86
2021/04/20 10:36:55;;;;;;;9.60;5.55;;;;;;;31.97;16.33;100707.31;5070996;28;20091;-86
2021/04/20 10:39:24;;;;;;;11.55;5.45;;;;;;;31.92;16.26;100718.03;5062122;28;20052;-86
2021/04/20 10:41:51;;;;;;;11.68;6.72;;;;;;;31.92;16.65;100715.31;5060311;28;20024;-86
2021/04/20 10:44:19;;;;;;;12.50;7.20;;;;;;;31.74;16.28;100707.34;5054401;28;20032;-86
2021/04/20 10:46:51;;;;;;;12.23;5.82;;;;;;;32.32;15.54;100703.69;5068015;28;20020;-87
2021/04/20 10:49:17;;;;;;;12.50;6.32;;;;;;;32.52;15.52;100710.59;5070868;28;20364;-86
2021/04/20 10:51:44;;;;;;;15.43;6.22;;;;;;;31.24;16.36;100708.56;5053697;28;20033;-87
2021/04/20 10:54:11;;;;;;;12.02;6.05;;;;;;;32.27;16.17;100706.31;5054513;28;20048;-86
2021/04/20 10:56:45;;;;;;;12.65;6.50;;;;;;;31.17;17.61;100703.25;5067563;28;20029;-86
2021/04/20 10:59:24;;;;;;;8.07;5.82;;;;;;;31.85;17.15;100705.66;5073320;28;20023;-86
2021/04/20 11:01:50;;;;;;;10.38;6.82;;;;;;;32.48;15.97;100698.53;5054429;28;20021;-87
2021/04/20 11:04:21;;;;;;;9.75;5.68;;;;;;;32.43;16.06;100696.56;5060996;28;20082;-87
2021/04/20 11:07:05;;;;;;;9.98;6.68;;;;;;;31.69;16.40;100699.88;5061145;28;20093;-86
2021/04/20 11:09:32;;;;;;;10.93;5.90;;;;;;;30.79;18.40;100692.78;5053649;28;20037;-86
2021/04/20 11:11:58;;;;;;;16.67;6.13;;;;;;;30.81;18.26;100696.91;5062121;28;20029;-86
2021/04/20 11:14:37;;;;;;;10.98;5.70;;;;;;;31.07;17.38;100694.88;5054445;28;20044;-87
2021/04/20 11:17:04;;;;;;;13.82;6.18;;;;;;;32.21;16.51;100693.69;5052285;28;20021;-87
2021/04/20 11:19:32;;;;;;;7.78;5.47;;;;;;;31.10;17.16;100691.69;5070053;28;20029;-87
2021/04/20 11:22:01;;;;;;;12.55;5.60;;;;;;;31.52;16.81;100691.66;5073285;28;20116;-87
2021/04/20 11:24:29;;;;;;;13.77;6.28;;;;;;;31.62;16.64;100691.88;5066663;28;20556;-87
2021/04/20 11:27:05;;;;;;;12.65;5.97;;;;;;;30.63;17.64;100680.72;5065109;28;20030;-86
2021/04/20 11:29:41;;;;;;;11.23;6.72;;;;;;;30.55;18.42;100694.56;5067801;28;20020;-86
2021/04/20 11:32:11;;;;;;;10.18;6.80;;;;;;;31.14;17.67;100681.19;5064900;28;20028;-87
2021/04/20 11:34:40;;;;;;;15.50;6.10;;;;;;;32.04;16.48;100673.78;5072220;28;20039;-87
2021/04/20 11:37:10;;;;;;;9.68;6.00;;;;;;;31.43;16.89;100676.75;5073218;28;20028;-87
2021/04/20 11:39:42;;;;;;;10.90;6.57;;;;;;;30.63;18.59;100673.41;5073694;28;20099;-87
2021/04/20 11:42:14;;;;;;;14.93;6.38;;;;;;;30.50;18.84;100670.06;5054905;28;20071;-87